Time;durP1;ratioP1;P1;durP2;ratioP2;P2;SDS_P1;SDS_P2;PMS_P1;PMS_P2;Temp;Humidity;BMP_temperature;BMP_pressure;BME280_temperature;BME280_humidity;BME280_pressure;Samples;Min_cycle;Max_cycle;Signal;HPM_P1;HPM_P2
2020/12/27 00:01:54;;;;;;;4.97;4.57;;;11.50;63.20;;;;;;5137371;27;20478;-50
2020/12/27 00:04:32;;;;;;;4.93;4.53;;;11.50;63.20;;;;;;5138107;27;20533;-54
2020/12/27 00:07:02;;;;;;;6.30;4.60;;;11.40;63.10;;;;;;5138065;27;20485;-51
2020/12/27 00:09:29;;;;;;;4.80;4.50;;;11.40;63.20;;;;;;5137651;27;20473;-51
2020/12/27 00:11:56;;;;;;;5.47;5.07;;;11.40;63.20;;;;;;5137170;27;20495;-49
2020/12/27 00:14:23;;;;;;;5.23;4.80;;;11.40;63.30;;;;;;5137649;27;20487;-53
2020/12/27 00:16:50;;;;;;;6.63;4.93;;;11.50;63.20;;;;;;5137780;27;20466;-49
2020/12/27 00:19:17;;;;;;;4.83;4.43;;;11.40;63.00;;;;;;5126621;27;20448;-52
2020/12/27 00:21:43;;;;;;;5.00;4.57;;;11.50;63.10;;;;;;5116607;28;20444;-49
2020/12/27 00:24:10;;;;;;;5.10;4.70;;;11.50;62.80;;;;;;5117195;28;20500;-50
2020/12/27 00:26:38;;;;;;;5.67;5.17;;;11.50;62.80;;;;;;5116973;28;20460;-50
2020/12/27 00:29:05;;;;;;;5.20;4.80;;;11.50;62.80;;;;;;5116721;27;20458;-52
2020/12/27 00:31:32;;;;;;;4.67;4.37;;;11.50;62.60;;;;;;5116796;28;20523;-53
2020/12/27 00:33:58;;;;;;;5.30;4.90;;;11.50;62.50;;;;;;5116759;28;20539;-51
2020/12/27 00:36:26;;;;;;;5.67;5.17;;;11.50;62.60;;;;;;5116519;28;20450;-51
2020/12/27 00:38:52;;;;;;;4.77;4.47;;;11.50;62.60;;;;;;5116871;28;20444;-51
2020/12/27 00:41:23;;;;;;;5.70;5.20;;;11.50;62.50;;;;;;5116188;28;20493;-51
2020/12/27 00:43:51;;;;;;;5.33;4.93;;;11.50;62.40;;;;;;5116595;28;20471;-49
2020/12/27 00:46:17;;;;;;;5.80;5.30;;;11.50;62.40;;;;;;5131604;27;20467;-50
2020/12/27 00:48:44;;;;;;;6.00;5.50;;;11.50;62.50;;;;;;5136870;27;20474;-52
2020/12/27 00:51:11;;;;;;;6.20;5.70;;;11.50;62.30;;;;;;5136541;27;20439;-49
2020/12/27 00:53:38;;;;;;;6.03;5.53;;;11.50;62.10;;;;;;5134608;27;20527;-51
2020/12/27 00:56:05;;;;;;;6.07;5.47;;;11.50;62.10;;;;;;5116703;28;20436;-49
2020/12/27 00:58:32;;;;;;;6.13;5.53;;;11.30;62.20;;;;;;5116212;28;20496;-49
2020/12/27 01:00:59;;;;;;;5.47;5.07;;;11.50;62.20;;;;;;5115809;28;20424;-50
2020/12/27 01:03:26;;;;;;;5.80;5.30;;;11.50;62.00;;;;;;5116700;28;20518;-52
2020/12/27 01:05:53;;;;;;;5.83;5.43;;;11.50;62.50;;;;;;5116229;28;20463;-49
2020/12/27 01:08:20;;;;;;;6.27;5.77;;;11.50;62.20;;;;;;5116050;28;20530;-50
2020/12/27 01:10:47;;;;;;;5.53;5.23;;;11.40;62.10;;;;;;5115374;28;20504;-52
2020/12/27 01:13:14;;;;;;;6.50;5.17;;;11.40;62.00;;;;;;5134469;27;20507;-50
2020/12/27 01:15:41;;;;;;;5.30;4.90;;;11.50;62.10;;;;;;5136690;27;20435;-51
2020/12/27 01:18:09;;;;;;;5.50;5.00;;;11.40;62.00;;;;;;5136477;27;20485;-52
2020/12/27 01:20:35;;;;;;;5.70;5.20;;;11.50;61.90;;;;;;5135375;27;20478;-49
2020/12/27 01:23:03;;;;;;;6.03;5.53;;;11.40;61.90;;;;;;5136315;27;20505;-54
2020/12/27 01:25:29;;;;;;;5.03;4.73;;;11.50;61.80;;;;;;5136169;27;20462;-50
2020/12/27 01:27:56;;;;;;;6.03;5.37;;;11.50;61.80;;;;;;5136504;27;20520;-51
2020/12/27 01:30:23;;;;;;;5.07;4.70;;;11.50;61.50;;;;;;5122057;27;20440;-49
2020/12/27 01:32:50;;;;;;;5.30;4.87;;;11.50;61.40;;;;;;5115381;28;20489;-49
2020/12/27 01:35:31;;;;;;;5.00;4.50;;;11.40;62.30;;;;;;5115750;28;20452;-54
2020/12/27 01:37:58;;;;;;;5.20;4.70;;;11.50;61.60;;;;;;5115630;27;20529;-53
2020/12/27 01:40:25;;;;;;;4.60;4.30;;;11.50;61.40;;;;;;5115043;28;20436;-53
2020/12/27 01:42:56;;;;;;;4.50;4.10;;;11.40;61.40;;;;;;5115393;28;20448;-55
2020/12/27 01:45:23;;;;;;;4.40;4.20;;;11.40;61.60;;;;;;5115346;28;20471;-51
2020/12/27 01:47:50;;;;;;;4.00;3.80;;;11.40;61.30;;;;;;5126460;27;20475;-52
2020/12/27 01:50:19;;;;;;;3.90;3.70;;;11.50;61.90;;;;;;5134809;27;20492;-50
2020/12/27 01:52:46;;;;;;;4.23;3.93;;;11.40;61.20;;;;;;5136124;27;20435;-52
2020/12/27 01:55:14;;;;;;;4.10;3.90;;;11.50;61.10;;;;;;5136017;27;20431;-50
2020/12/27 01:57:58;;;;;;;3.83;3.53;;;11.50;60.90;;;;;;5115509;27;20474;-54
2020/12/27 02:00:24;;;;;;;3.83;3.63;;;11.40;60.90;;;;;;5114482;28;20630;-53
2020/12/27 02:02:51;;;;;;;3.53;3.37;;;11.40;60.80;;;;;;5114918;28;20446;-55
2020/12/27 02:05:18;;;;;;;3.50;3.30;;;11.50;60.70;;;;;;5124260;27;20526;-53
2020/12/27 02:07:46;;;;;;;7.57;3.33;;;11.40;60.70;;;;;;5135517;27;20488;-53
2020/12/27 02:10:13;;;;;;;3.47;3.30;;;11.40;60.70;;;;;;5134961;27;20520;-54
2020/12/27 02:12:39;;;;;;;2.93;2.83;;;11.50;60.60;;;;;;5135532;27;20526;-56
2020/12/27 02:15:07;;;;;;;3.00;2.90;;;11.50;60.60;;;;;;5117925;27;20508;-55
2020/12/27 02:17:34;;;;;;;3.10;2.90;;;11.50;60.70;;;;;;5114690;28;20515;-51
2020/12/27 02:20:00;;;;;;;3.20;3.00;;;11.50;60.60;;;;;;5114368;28;20475;-51
2020/12/27 02:22:27;;;;;;;2.73;2.63;;;11.50;60.70;;;;;;5115076;27;20440;-54
2020/12/27 02:24:55;;;;;;;2.83;2.63;;;11.50;60.70;;;;;;5114737;28;20447;-54
2020/12/27 02:27:22;;;;;;;2.60;2.50;;;11.50;60.50;;;;;;5114569;28;20507;-51
2020/12/27 02:29:49;;;;;;;2.60;2.50;;;11.50;60.60;;;;;;5114036;28;20440;-51
2020/12/27 02:32:15;;;;;;;2.37;2.30;;;11.50;60.50;;;;;;5114750;27;20472;-50
2020/12/27 02:34:42;;;;;;;3.80;2.47;;;11.60;60.40;;;;;;5114707;28;20525;-51
2020/12/27 02:37:12;;;;;;;2.83;2.73;;;11.50;60.20;;;;;;5114782;28;20496;-53
2020/12/27 02:39:39;;;;;;;2.67;2.47;;;11.60;60.20;;;;;;5112666;28;20482;-56
2020/12/27 02:42:06;;;;;;;2.30;2.17;;;11.60;60.20;;;;;;5114827;28;20435;-56
2020/12/27 02:47:05;;;;;;;2.50;2.30;;;11.50;60.10;;;;;;5114736;28;20524;-51
2020/12/27 02:49:32;;;;;;;2.10;2.00;;;11.50;60.10;;;;;;5124059;28;20500;-55
2020/12/27 02:51:59;;;;;;;2.10;2.00;;;11.60;60.00;;;;;;5134397;28;20466;-55
2020/12/27 02:54:25;;;;;;;2.00;1.90;;;11.60;60.00;;;;;;5135306;28;20427;-52
2020/12/27 02:56:52;;;;;;;2.20;2.10;;;11.50;60.00;;;;;;5135117;28;20473;-56
2020/12/27 02:59:20;;;;;;;1.70;1.60;;;11.50;60.20;;;;;;5134714;27;20443;-53
2020/12/27 03:01:47;;;;;;;1.70;1.60;;;11.50;60.10;;;;;;5138837;27;20489;-53
2020/12/27 03:04:14;;;;;;;2.10;2.00;;;11.50;60.20;;;;;;5139138;27;20439;-54
2020/12/27 03:06:41;;;;;;;1.90;1.80;;;11.50;59.90;;;;;;5138812;27;20498;-51
2020/12/27 03:09:07;;;;;;;1.77;1.77;;;11.60;59.90;;;;;;5139332;27;20470;-52
2020/12/27 03:11:34;;;;;;;1.90;1.80;;;11.50;59.90;;;;;;5138585;27;20469;-52
2020/12/27 03:14:02;;;;;;;2.67;1.63;;;11.50;59.80;;;;;;5139219;27;20443;-53
2020/12/27 03:16:30;;;;;;;2.00;1.90;;;11.50;59.70;;;;;;5138345;27;20464;-51
2020/12/27 03:18:57;;;;;;;1.90;1.80;;;11.50;59.70;;;;;;5138651;27;20530;-54
2020/12/27 03:21:24;;;;;;;3.27;2.07;;;11.50;59.50;;;;;;5138084;27;20538;-55
2020/12/27 03:23:50;;;;;;;1.90;1.67;;;11.50;59.50;;;;;;5138624;27;20495;-52
2020/12/27 03:26:17;;;;;;;1.73;1.63;;;11.50;59.40;;;;;;5118150;28;20518;-54
2020/12/27 03:28:44;;;;;;;1.50;1.50;;;11.40;59.40;;;;;;5118201;28;20467;-51
2020/12/27 03:31:12;;;;;;;1.73;1.70;;;11.40;59.40;;;;;;5117756;28;20531;-53
2020/12/27 03:33:40;;;;;;;1.60;1.50;;;11.50;59.10;;;;;;5117815;27;20531;-50
2020/12/27 03:36:07;;;;;;;1.43;1.43;;;11.50;59.00;;;;;;5118130;28;20474;-51
2020/12/27 03:38:33;;;;;;;1.20;1.20;;;11.40;58.90;;;;;;5118156;28;20482;-50
2020/12/27 03:41:01;;;;;;;1.30;1.30;;;11.50;59.00;;;;;;5117323;28;20440;-51
2020/12/27 03:43:28;;;;;;;1.50;1.40;;;11.40;58.80;;;;;;5134091;27;20505;-56
2020/12/27 03:45:55;;;;;;;1.37;1.23;;;11.40;58.70;;;;;;5138117;27;20488;-54
2020/12/27 03:48:22;;;;;;;1.40;1.30;;;11.40;58.70;;;;;;5138028;27;20483;-55
2020/12/27 03:50:49;;;;;;;1.60;1.50;;;11.40;58.70;;;;;;5134039;27;20450;-53
2020/12/27 03:53:16;;;;;;;1.50;1.50;;;11.40;58.50;;;;;;5117637;28;20507;-49
2020/12/27 03:55:43;;;;;;;1.57;1.23;;;11.40;58.40;;;;;;5117666;28;20424;-53
2020/12/27 03:58:10;;;;;;;2.20;1.40;;;11.40;58.20;;;;;;5117715;27;20451;-53
2020/12/27 04:00:36;;;;;;;1.40;1.40;;;11.40;58.20;;;;;;5117502;27;20582;-49
2020/12/27 04:03:03;;;;;;;1.60;1.50;;;11.40;58.10;;;;;;5117693;28;20469;-52
2020/12/27 04:05:30;;;;;;;1.27;1.27;;;11.40;57.90;;;;;;5117507;28;20474;-51
2020/12/27 04:07:58;;;;;;;1.00;1.00;;;11.40;57.90;;;;;;5117239;28;20478;-55
2020/12/27 04:10:24;;;;;;;4.10;1.40;;;11.40;57.80;;;;;;5117012;28;20531;-51
2020/12/27 04:12:51;;;;;;;1.30;1.30;;;11.40;57.50;;;;;;5116720;28;20465;-52
2020/12/27 04:15:18;;;;;;;1.30;1.30;;;11.50;57.50;;;;;;5117312;28;20459;-51
2020/12/27 04:17:45;;;;;;;1.73;1.30;;;11.40;57.40;;;;;;5117581;27;20488;-53
2020/12/27 04:20:12;;;;;;;1.23;1.23;;;11.40;57.40;;;;;;5116469;28;20439;-52
2020/12/27 04:22:38;;;;;;;1.20;1.20;;;11.40;57.10;;;;;;5117338;28;20468;-53
2020/12/27 04:25:06;;;;;;;1.37;1.37;;;11.40;57.20;;;;;;5117066;28;20467;-54
2020/12/27 04:27:33;;;;;;;1.20;1.20;;;11.30;57.30;;;;;;5117146;27;20497;-52
2020/12/27 04:30:00;;;;;;;1.50;1.40;;;11.30;56.90;;;;;;5116161;28;20468;-54
2020/12/27 04:32:27;;;;;;;1.60;1.50;;;11.40;56.90;;;;;;5117096;28;20459;-53
2020/12/27 04:34:53;;;;;;;1.33;1.23;;;11.40;56.60;;;;;;5117032;27;20471;-54
2020/12/27 04:37:26;;;;;;;1.33;1.23;;;11.30;56.50;;;;;;5117013;28;20500;-52
2020/12/27 04:39:53;;;;;;;1.60;1.50;;;11.30;56.40;;;;;;5116289;28;20467;-51
2020/12/27 04:42:21;;;;;;;1.50;1.40;;;11.30;56.30;;;;;;5116398;28;20466;-52
2020/12/27 04:44:48;;;;;;;1.17;1.17;;;11.30;56.20;;;;;;5116936;28;20486;-52
2020/12/27 04:47:15;;;;;;;1.40;1.30;;;11.40;56.00;;;;;;5116692;28;20497;-50
2020/12/27 04:49:42;;;;;;;1.40;1.30;;;11.40;55.90;;;;;;5116201;28;20467;-51
2020/12/27 04:52:11;;;;;;;2.50;1.37;;;11.40;55.90;;;;;;5116678;28;20432;-51
2020/12/27 04:54:37;;;;;;;1.23;1.23;;;11.20;55.80;;;;;;5116531;27;20444;-53
2020/12/27 04:57:04;;;;;;;1.33;1.30;;;11.30;55.80;;;;;;5116359;28;20471;-52
2020/12/27 04:59:32;;;;;;;1.00;1.00;;;11.30;55.60;;;;;;5116602;28;20475;-50
2020/12/27 05:01:59;;;;;;;1.50;1.40;;;11.40;55.70;;;;;;5116228;27;20551;-52
2020/12/27 05:04:27;;;;;;;1.07;1.07;;;11.30;55.60;;;;;;5116128;28;20566;-51
2020/12/27 05:06:54;;;;;;;1.20;1.10;;;11.40;55.50;;;;;;5116242;28;20478;-52
2020/12/27 05:09:25;;;;;;;1.20;1.20;;;11.40;55.50;;;;;;5116192;28;20475;-52
2020/12/27 05:11:52;;;;;;;4.30;1.93;;;11.30;55.40;;;;;;5115976;27;20504;-55
2020/12/27 05:14:21;;;;;;;1.20;1.10;;;11.30;55.50;;;;;;5115935;28;20507;-52
2020/12/27 05:16:52;;;;;;;1.13;1.03;;;11.40;55.50;;;;;;5116218;28;20524;-54
2020/12/27 05:19:19;;;;;;;1.47;1.00;;;11.30;55.30;;;;;;5116137;27;20538;-53
2020/12/27 05:21:46;;;;;;;1.20;1.13;;;11.30;55.40;;;;;;5115374;28;20471;-51
2020/12/27 05:24:13;;;;;;;2.10;0.97;;;11.40;55.50;;;;;;5114576;28;20435;-53
2020/12/27 05:26:41;;;;;;;1.00;1.00;;;11.20;55.60;;;;;;5115964;28;20547;-53
2020/12/27 05:29:08;;;;;;;0.97;0.97;;;11.30;55.70;;;;;;5127092;27;20435;-51
2020/12/27 05:31:35;;;;;;;3.33;1.00;;;11.30;55.90;;;;;;5135983;27;20513;-54
2020/12/27 05:34:09;;;;;;;0.97;0.97;;;11.30;55.90;;;;;;5136380;27;20432;-55
2020/12/27 05:36:35;;;;;;;1.00;1.00;;;11.30;56.10;;;;;;5135841;27;20568;-55
2020/12/27 05:39:02;;;;;;;0.93;0.93;;;11.20;56.30;;;;;;5115983;28;20467;-56
2020/12/27 05:41:30;;;;;;;1.20;1.03;;;11.20;56.40;;;;;;5115352;28;20465;-55
2020/12/27 05:44:00;;;;;;;1.00;1.00;;;11.20;56.40;;;;;;5115615;28;20472;-55
2020/12/27 05:46:28;;;;;;;1.00;1.00;;;11.20;56.40;;;;;;5115438;28;20436;-53
2020/12/27 05:48:55;;;;;;;0.93;0.93;;;11.20;56.60;;;;;;5115354;28;20436;-52
2020/12/27 05:51:23;;;;;;;1.07;1.07;;;11.20;56.70;;;;;;5114737;28;20520;-55
2020/12/27 05:53:50;;;;;;;1.07;1.00;;;11.10;56.80;;;;;;5115431;28;20459;-51
2020/12/27 05:56:18;;;;;;;1.03;1.03;;;11.20;56.80;;;;;;5115498;28;20534;-52
2020/12/27 05:58:45;;;;;;;1.03;1.03;;;11.10;56.90;;;;;;5115111;27;20529;-53
2020/12/27 06:01:19;;;;;;;0.90;0.90;;;11.20;57.00;;;;;;5114467;28;20443;-54
2020/12/27 06:04:00;;;;;;;1.10;1.00;;;11.10;57.00;;;;;;5120099;27;20502;-53
2020/12/27 06:06:46;;;;;;;0.90;0.90;;;11.20;57.10;;;;;;5135675;27;20494;-53
2020/12/27 06:09:13;;;;;;;1.27;1.00;;;11.20;57.20;;;;;;5135572;27;20426;-56
2020/12/27 06:11:53;;;;;;;1.20;1.20;;;11.20;57.30;;;;;;5135169;27;20430;-55
2020/12/27 06:14:39;;;;;;;1.00;0.90;;;11.10;57.50;;;;;;5115724;28;20440;-55
2020/12/27 06:17:13;;;;;;;0.93;0.93;;;11.10;57.60;;;;;;5115197;28;20512;-56
2020/12/27 06:20:07;;;;;;;0.90;0.90;;;11.10;57.70;;;;;;5114475;28;20534;-52
2020/12/27 06:22:35;;;;;;;0.90;0.90;;;11.00;57.80;;;;;;5112444;28;20454;-53
2020/12/27 06:25:02;;;;;;;1.17;1.07;;;11.00;58.00;;;;;;5114651;28;20475;-54
2020/12/27 06:27:30;;;;;;;0.80;0.80;;;11.00;57.90;;;;;;5114837;28;20495;-53
2020/12/27 06:30:04;;;;;;;0.77;0.77;;;11.10;57.90;;;;;;5114274;27;20447;-57
2020/12/27 06:32:34;;;;;;;1.30;1.00;;;11.00;57.90;;;;;;5114466;28;20530;-55
2020/12/27 06:35:04;;;;;;;0.93;0.80;;;11.10;57.90;;;;;;5114085;28;20432;-56
2020/12/27 06:37:42;;;;;;;1.03;0.90;;;11.10;58.00;;;;;;5114860;28;20432;-55
2020/12/27 06:40:09;;;;;;;1.07;1.07;;;11.10;57.80;;;;;;5114366;28;20444;-55
2020/12/27 06:42:36;;;;;;;0.80;0.80;;;11.10;58.00;;;;;;5114435;28;20471;-54
2020/12/27 06:45:04;;;;;;;0.83;0.70;;;11.10;58.20;;;;;;5115084;28;20439;-56
2020/12/27 06:47:47;;;;;;;0.80;0.80;;;11.00;58.30;;;;;;5114748;28;20486;-54
2020/12/27 06:50:15;;;;;;;0.90;0.90;;;11.00;58.20;;;;;;5114283;28;20435;-54
2020/12/27 06:52:43;;;;;;;1.03;0.90;;;11.10;58.10;;;;;;5114768;28;20534;-56
2020/12/27 06:55:10;;;;;;;0.80;0.80;;;11.00;58.10;;;;;;5114675;28;20438;-53
2020/12/27 06:57:41;;;;;;;1.00;0.90;;;11.00;58.20;;;;;;5114585;28;20438;-55
2020/12/27 07:00:23;;;;;;;1.00;0.90;;;11.10;58.10;;;;;;5113804;28;20436;-53
2020/12/27 07:03:08;;;;;;;1.60;1.00;;;11.10;58.00;;;;;;5112506;28;20507;-52
2020/12/27 07:05:36;;;;;;;1.63;1.00;;;11.00;58.30;;;;;;5118534;28;20531;-53
2020/12/27 07:08:04;;;;;;;1.00;1.00;;;11.00;58.40;;;;;;5134711;28;20466;-51
2020/12/27 07:10:32;;;;;;;1.00;1.00;;;11.00;58.20;;;;;;5129112;28;20462;-52
2020/12/27 07:13:07;;;;;;;1.67;0.90;;;11.00;58.20;;;;;;5134899;28;20555;-53
2020/12/27 07:15:33;;;;;;;1.20;0.77;;;11.10;58.20;;;;;;5121126;27;20440;-52
2020/12/27 07:18:07;;;;;;;1.03;0.83;;;11.00;58.30;;;;;;5114236;28;20428;-54
2020/12/27 07:20:35;;;;;;;1.20;0.90;;;10.90;58.40;;;;;;5113727;28;20451;-55
2020/12/27 07:23:02;;;;;;;0.77;0.77;;;11.00;58.40;;;;;;5116264;28;20436;-54
2020/12/27 07:25:30;;;;;;;0.90;0.90;;;11.00;58.20;;;;;;5134222;27;20455;-55
2020/12/27 07:27:59;;;;;;;0.80;0.80;;;11.00;58.30;;;;;;5134451;28;20510;-54
2020/12/27 07:30:26;;;;;;;0.70;0.70;;;11.00;58.10;;;;;;5134665;28;20536;-54
2020/12/27 07:32:53;;;;;;;2.20;0.80;;;11.10;58.10;;;;;;5123627;28;20444;-52
2020/12/27 07:35:24;;;;;;;0.83;0.83;;;11.00;58.20;;;;;;5113871;28;20428;-55
2020/12/27 07:38:08;;;;;;;0.60;0.60;;;10.90;58.30;;;;;;5114141;28;20504;-54
2020/12/27 07:40:36;;;;;;;0.80;0.80;;;10.90;58.40;;;;;;5113648;28;20491;-55
2020/12/27 07:43:07;;;;;;;0.70;0.70;;;10.90;58.20;;;;;;5113848;28;20448;-52
2020/12/27 07:45:34;;;;;;;0.70;0.70;;;11.00;58.10;;;;;;5114536;28;20562;-53
2020/12/27 07:48:01;;;;;;;0.80;0.80;;;11.00;58.10;;;;;;5116423;28;20503;-54
2020/12/27 07:50:27;;;;;;;0.80;0.80;;;11.00;58.00;;;;;;5117516;27;20463;-52
2020/12/27 07:52:55;;;;;;;0.70;0.70;;;11.10;58.00;;;;;;5117697;28;20526;-55
2020/12/27 07:55:27;;;;;;;1.43;0.80;;;11.10;57.90;;;;;;5117675;28;20439;-55
2020/12/27 07:57:55;;;;;;;1.13;0.70;;;11.10;57.70;;;;;;5117687;28;20467;-53
2020/12/27 08:00:23;;;;;;;0.83;0.83;;;11.00;57.80;;;;;;5117149;27;20455;-53
2020/12/27 08:02:50;;;;;;;0.90;0.90;;;11.10;58.40;;;;;;5117751;28;20489;-55
2020/12/27 08:05:17;;;;;;;9.63;0.80;;;11.00;57.90;;;;;;5117624;28;20526;-55
2020/12/27 08:07:44;;;;;;;0.73;0.73;;;10.90;57.90;;;;;;5117738;27;20471;-54
2020/12/27 08:10:16;;;;;;;1.57;0.80;;;10.90;57.80;;;;;;5116731;28;20503;-54
2020/12/27 08:12:57;;;;;;;0.70;0.70;;;10.80;58.00;;;;;;5117517;28;20523;-52
2020/12/27 08:15:25;;;;;;;0.90;0.70;;;11.00;57.90;;;;;;5117192;28;20499;-56
2020/12/27 08:17:59;;;;;;;1.03;0.93;;;11.00;57.80;;;;;;5117819;27;20463;-53
2020/12/27 08:20:27;;;;;;;0.97;0.97;;;11.00;57.90;;;;;;5116509;28;20471;-55
2020/12/27 08:22:58;;;;;;;0.90;0.80;;;11.10;58.00;;;;;;5117130;28;20469;-54
2020/12/27 08:25:25;;;;;;;0.70;0.70;;;11.20;57.80;;;;;;5116917;27;20440;-56
2020/12/27 08:27:55;;;;;;;0.80;0.80;;;11.00;57.80;;;;;;5117374;28;20471;-56
2020/12/27 08:30:23;;;;;;;1.27;1.00;;;11.00;58.10;;;;;;5116711;28;20555;-55
2020/12/27 08:33:02;;;;;;;0.80;0.80;;;11.00;58.10;;;;;;5117136;28;20479;-56
2020/12/27 08:35:28;;;;;;;0.80;0.80;;;10.80;58.20;;;;;;5117274;28;20515;-53
2020/12/27 08:38:14;;;;;;;1.37;0.70;;;10.90;58.30;;;;;;5116785;28;20459;-55
2020/12/27 08:40:43;;;;;;;0.83;0.83;;;11.00;58.20;;;;;;5116375;28;20497;-55
2020/12/27 08:43:20;;;;;;;0.70;0.70;;;11.00;58.10;;;;;;5116893;28;20472;-55
2020/12/27 08:45:53;;;;;;;0.83;0.80;;;11.00;58.00;;;;;;5116692;28;20439;-55
2020/12/27 08:48:25;;;;;;;0.70;0.70;;;11.10;58.00;;;;;;5116403;28;20518;-55
2020/12/27 08:50:52;;;;;;;0.80;0.80;;;11.10;58.00;;;;;;5116169;28;20436;-56
2020/12/27 08:53:19;;;;;;;0.80;0.80;;;11.10;57.80;;;;;;5116562;27;20444;-56
2020/12/27 08:55:46;;;;;;;2.40;0.70;;;11.10;57.70;;;;;;5116428;28;20495;-55
2020/12/27 08:58:21;;;;;;;2.70;0.77;;;11.10;57.80;;;;;;5116241;28;20443;-54
2020/12/27 09:00:48;;;;;;;2.03;0.90;;;11.10;58.00;;;;;;5121582;27;20471;-53
2020/12/27 09:03:16;;;;;;;0.90;0.90;;;11.00;58.00;;;;;;5137055;27;20474;-52
2020/12/27 09:05:43;;;;;;;2.20;0.90;;;11.00;58.00;;;;;;5136977;27;20435;-54
2020/12/27 09:08:17;;;;;;;0.97;0.97;;;11.00;58.00;;;;;;5136557;27;20554;-54
2020/12/27 09:10:44;;;;;;;1.27;0.80;;;11.00;58.20;;;;;;5121190;27;20439;-55
2020/12/27 09:13:12;;;;;;;2.30;1.10;;;11.00;58.20;;;;;;5126286;27;20487;-51
2020/12/27 09:15:39;;;;;;;1.10;1.10;;;10.70;61.10;;;;;;5136434;27;20431;-56
2020/12/27 09:18:07;;;;;;;1.00;1.00;;;9.50;60.70;;;;;;5132313;27;20522;-52
2020/12/27 09:20:35;;;;;;;0.87;0.87;;;10.20;61.20;;;;;;5135571;27;20492;-52
2020/12/27 09:23:11;;;;;;;1.03;0.93;;;10.60;59.50;;;;;;5136248;27;20455;-55
2020/12/27 09:25:38;;;;;;;0.87;0.83;;;10.90;58.70;;;;;;5136434;27;20461;-56
2020/12/27 09:28:11;;;;;;;1.20;1.20;;;11.00;58.50;;;;;;5136162;27;20470;-56
2020/12/27 09:30:42;;;;;;;0.90;0.90;;;11.10;58.20;;;;;;5135828;27;20503;-59
2020/12/27 09:33:09;;;;;;;1.97;0.90;;;11.20;58.10;;;;;;5136451;27;20447;-58
2020/12/27 09:35:37;;;;;;;0.83;0.83;;;11.20;58.00;;;;;;5136109;27;20507;-56
2020/12/27 09:38:04;;;;;;;0.70;0.70;;;11.20;58.20;;;;;;5136060;27;20431;-59
2020/12/27 09:40:34;;;;;;;0.70;0.70;;;11.20;58.20;;;;;;5135337;27;20442;-59
2020/12/27 09:43:03;;;;;;;1.00;1.00;;;11.20;58.30;;;;;;5135941;27;20489;-59
2020/12/27 09:45:30;;;;;;;0.90;0.90;;;11.20;58.30;;;;;;5135863;27;20435;-59
2020/12/27 09:47:59;;;;;;;2.20;0.90;;;11.20;58.40;;;;;;5135911;27;20530;-57
2020/12/27 09:50:28;;;;;;;0.70;0.70;;;11.20;58.30;;;;;;5135512;27;20504;-59
2020/12/27 09:52:55;;;;;;;1.00;0.90;;;11.20;58.30;;;;;;5136299;27;20538;-59
2020/12/27 09:55:22;;;;;;;2.20;0.90;;;11.20;58.40;;;;;;5118120;27;20440;-59
2020/12/27 09:57:49;;;;;;;0.80;0.80;;;11.20;58.50;;;;;;5115364;28;20527;-59
2020/12/27 10:00:16;;;;;;;0.80;0.80;;;11.20;58.60;;;;;;5129468;27;20499;-59
2020/12/27 10:02:43;;;;;;;0.83;0.83;;;11.10;58.60;;;;;;5130325;27;20436;-58
2020/12/27 10:05:10;;;;;;;1.37;0.90;;;11.20;58.70;;;;;;5115087;28;20492;-55
2020/12/27 10:07:37;;;;;;;2.77;0.90;;;11.20;58.50;;;;;;5114799;28;20559;-55
2020/12/27 10:10:05;;;;;;;0.80;0.80;;;11.20;58.60;;;;;;5113969;28;20514;-59
2020/12/27 10:12:32;;;;;;;0.70;0.70;;;11.20;58.70;;;;;;5115197;28;20518;-59
2020/12/27 10:14:58;;;;;;;0.70;0.70;;;11.20;58.80;;;;;;5114948;28;20466;-58
2020/12/27 10:17:25;;;;;;;0.90;0.70;;;11.30;58.70;;;;;;5114786;28;20431;-59
2020/12/27 10:19:52;;;;;;;0.70;0.70;;;11.10;59.00;;;;;;5114641;28;20439;-59
2020/12/27 10:22:19;;;;;;;0.70;0.70;;;11.20;59.00;;;;;;5135456;27;20491;-59
2020/12/27 10:24:46;;;;;;;0.70;0.70;;;11.20;59.10;;;;;;5135658;27;20431;-60
2020/12/27 10:27:14;;;;;;;0.80;0.80;;;11.20;59.00;;;;;;5135069;27;20518;-59
2020/12/27 10:29:40;;;;;;;0.80;0.70;;;11.10;59.20;;;;;;5134286;27;20495;-59
2020/12/27 10:32:08;;;;;;;0.70;0.70;;;11.20;59.20;;;;;;5135300;27;20435;-59
2020/12/27 10:34:35;;;;;;;1.47;0.80;;;11.20;59.20;;;;;;5135003;27;20471;-53
2020/12/27 10:37:02;;;;;;;0.93;0.60;;;11.20;59.20;;;;;;5135047;27;20484;-53
2020/12/27 10:39:29;;;;;;;1.00;0.80;;;11.20;59.20;;;;;;5118255;27;20467;-57
2020/12/27 10:41:56;;;;;;;0.70;0.70;;;11.20;59.20;;;;;;5117448;28;20459;-57
2020/12/27 10:44:24;;;;;;;0.83;0.83;;;11.20;59.30;;;;;;5134594;27;20431;-56
2020/12/27 10:46:51;;;;;;;0.90;0.90;;;11.20;59.30;;;;;;5132703;27;20475;-56
2020/12/27 10:49:18;;;;;;;1.30;0.60;;;11.10;59.60;;;;;;5134154;27;20505;-57
2020/12/27 10:51:45;;;;;;;0.97;0.70;;;11.20;59.50;;;;;;5134501;28;20497;-56
2020/12/27 10:54:12;;;;;;;1.60;0.80;;;11.20;59.50;;;;;;5135036;27;20463;-57
2020/12/27 10:56:40;;;;;;;0.80;0.80;;;11.20;59.40;;;;;;5134858;28;20434;-57
2020/12/27 10:59:06;;;;;;;0.80;0.80;;;11.20;59.50;;;;;;5135210;28;20435;-57
2020/12/27 11:01:34;;;;;;;0.80;0.80;;;11.20;59.50;;;;;;5133908;28;20492;-59
2020/12/27 11:04:01;;;;;;;0.70;0.70;;;11.20;59.50;;;;;;5135050;27;20477;-59
2020/12/27 11:06:29;;;;;;;0.70;0.70;;;11.20;59.60;;;;;;5134169;28;20478;-58
2020/12/27 11:08:56;;;;;;;1.10;0.70;;;11.20;59.70;;;;;;5134814;28;20496;-59
2020/12/27 11:11:33;;;;;;;1.03;0.93;;;11.30;59.60;;;;;;5134152;28;20455;-59
2020/12/27 11:14:00;;;;;;;1.23;0.80;;;11.20;59.80;;;;;;5125157;28;20432;-57
2020/12/27 11:16:27;;;;;;;1.03;0.77;;;11.10;60.20;;;;;;5114277;28;20522;-58
2020/12/27 11:18:55;;;;;;;0.80;0.80;;;11.00;60.40;;;;;;5114151;28;20461;-59
2020/12/27 11:21:22;;;;;;;0.80;0.80;;;11.10;60.30;;;;;;5115293;28;20493;-59
2020/12/27 11:23:48;;;;;;;0.80;0.80;;;11.20;60.30;;;;;;5118321;27;20444;-57
2020/12/27 11:26:18;;;;;;;0.80;0.80;;;11.20;60.30;;;;;;5118225;28;20526;-59
2020/12/27 11:28:45;;;;;;;0.90;0.90;;;11.00;60.50;;;;;;5120010;27;20563;-58
2020/12/27 11:31:15;;;;;;;0.80;0.80;;;11.10;60.50;;;;;;5135367;27;20441;-59
2020/12/27 11:33:43;;;;;;;1.83;0.80;;;11.10;60.50;;;;;;5138104;27;20466;-58
2020/12/27 11:36:11;;;;;;;0.80;0.80;;;11.10;60.50;;;;;;5138178;27;20438;-59
2020/12/27 11:38:38;;;;;;;0.90;0.90;;;11.00;60.60;;;;;;5135405;27;20463;-59
2020/12/27 11:41:06;;;;;;;0.87;0.80;;;11.10;60.80;;;;;;5136845;27;20463;-59
2020/12/27 11:43:33;;;;;;;0.83;0.83;;;11.00;60.80;;;;;;5137995;27;20451;-59
2020/12/27 11:46:00;;;;;;;0.90;0.90;;;10.90;61.00;;;;;;5137990;27;20422;-56
2020/12/27 11:48:27;;;;;;;0.80;0.80;;;10.90;61.10;;;;;;5137565;27;20594;-53
2020/12/27 11:50:53;;;;;;;1.03;0.70;;;10.90;61.30;;;;;;5137357;27;20415;-56
2020/12/27 11:53:21;;;;;;;2.20;0.73;;;11.00;61.10;;;;;;5137720;27;20451;-58
2020/12/27 11:55:48;;;;;;;0.80;0.80;;;11.00;60.90;;;;;;5137658;27;20459;-59
2020/12/27 11:58:15;;;;;;;0.80;0.80;;;11.10;60.90;;;;;;5137149;27;20427;-56
2020/12/27 12:00:42;;;;;;;1.00;0.87;;;11.20;60.90;;;;;;5137404;27;20495;-56
2020/12/27 12:03:09;;;;;;;1.63;0.80;;;11.10;60.80;;;;;;5138286;27;20427;-54
2020/12/27 12:05:36;;;;;;;0.80;0.80;;;11.10;60.90;;;;;;5137943;27;20534;-55
2020/12/27 12:08:03;;;;;;;1.00;1.00;;;11.10;60.80;;;;;;5137356;27;20572;-55
2020/12/27 12:10:31;;;;;;;0.90;0.90;;;11.10;60.80;;;;;;5137209;27;20435;-57
2020/12/27 12:12:58;;;;;;;2.00;0.80;;;11.10;60.90;;;;;;5137914;27;20500;-56
2020/12/27 12:15:27;;;;;;;2.60;0.93;;;11.10;61.00;;;;;;5137492;27;20473;-56
2020/12/27 12:17:53;;;;;;;0.83;0.83;;;11.20;60.80;;;;;;5137587;27;20525;-59
2020/12/27 12:23:05;;;;;;;1.10;0.90;;;11.00;61.10;;;;;;5137428;27;20514;-61
2020/12/27 12:25:32;;;;;;;0.93;0.90;;;11.00;61.20;;;;;;5137186;27;20495;-58
2020/12/27 12:27:59;;;;;;;0.80;0.70;;;11.10;60.90;;;;;;5137647;27;20507;-57
2020/12/27 12:30:26;;;;;;;0.90;0.90;;;11.10;61.10;;;;;;5136591;27;20430;-60
2020/12/27 12:32:53;;;;;;;2.20;0.80;;;11.00;61.20;;;;;;5136388;27;20458;-54
2020/12/27 12:35:20;;;;;;;0.90;0.90;;;11.20;61.00;;;;;;5136688;27;20455;-64
2020/12/27 12:37:47;;;;;;;3.37;1.03;;;11.20;60.90;;;;;;5136982;27;20463;-62
2020/12/27 12:40:14;;;;;;;2.70;1.00;;;11.10;61.00;;;;;;5136643;27;20526;-62
2020/12/27 12:42:41;;;;;;;1.00;1.00;;;11.20;61.00;;;;;;5125890;27;20526;-67
2020/12/27 12:45:08;;;;;;;1.33;0.80;;;11.10;61.10;;;;;;5116583;28;20468;-59
2020/12/27 12:47:35;;;;;;;1.10;1.10;;;11.00;61.30;;;;;;5116397;28;20471;-66
2020/12/27 12:50:02;;;;;;;1.00;1.00;;;11.10;61.10;;;;;;5116216;28;20578;-63
2020/12/27 12:52:29;;;;;;;2.23;1.40;;;11.10;61.00;;;;;;5116372;28;20440;-62
2020/12/27 12:54:55;;;;;;;7.93;2.77;;;11.10;65.40;;;;;;5123900;27;20435;-64
2020/12/27 12:57:22;;;;;;;8.10;2.80;;;12.30;76.70;;;;;;5136862;27;20474;-63
2020/12/27 12:59:50;;;;;;;6.70;2.60;;;12.10;72.50;;;;;;5130056;27;20428;-64